sensor_id;sensor_type;location;lat;lon;timestamp;P1;durP1;ratioP1;P2;durP2;ratioP2
1509;SDS011;746;48.688;9.428;2023-06-14T00:01:19;6.17;;;5.67;;
1509;SDS011;746;48.688;9.428;2023-06-14T00:03:42;6.07;;;5.53;;
1509;SDS011;746;48.688;9.428;2023-06-14T00:06:03;6.00;;;5.50;;
1509;SDS011;746;48.688;9.428;2023-06-14T00:08:24;6.20;;;5.60;;
1509;SDS011;746;48.688;9.428;2023-06-14T00:10:46;6.10;;;5.60;;
1509;SDS011;746;48.688;9.428;2023-06-14T00:13:08;6.30;;;5.70;;
1509;SDS011;746;48.688;9.428;2023-06-14T00:15:30;6.27;;;5.57;;
1509;SDS011;746;48.688;9.428;2023-06-14T00:17:51;6.27;;;5.67;;
1509;SDS011;746;48.688;9.428;2023-06-14T00:20:13;6.80;;;5.90;;
1509;SDS011;746;48.688;9.428;2023-06-14T00:22:34;6.07;;;5.57;;
1509;SDS011;746;48.688;9.428;2023-06-14T00:24:57;5.60;;;5.23;;
1509;SDS011;746;48.688;9.428;2023-06-14T00:27:21;6.13;;;5.50;;
1509;SDS011;746;48.688;9.428;2023-06-14T00:29:43;6.30;;;5.70;;
1509;SDS011;746;48.688;9.428;2023-06-14T00:32:04;6.67;;;6.00;;
1509;SDS011;746;48.688;9.428;2023-06-14T00:34:25;6.53;;;5.57;;
1509;SDS011;746;48.688;9.428;2023-06-14T00:36:46;7.23;;;5.37;;
1509;SDS011;746;48.688;9.428;2023-06-14T00:39:08;7.10;;;6.40;;
1509;SDS011;746;48.688;9.428;2023-06-14T00:41:30;6.30;;;5.80;;
1509;SDS011;746;48.688;9.428;2023-06-14T00:43:51;7.23;;;6.00;;
1509;SDS011;746;48.688;9.428;2023-06-14T00:46:14;6.20;;;5.80;;
1509;SDS011;746;48.688;9.428;2023-06-14T00:48:35;6.60;;;5.73;;
1509;SDS011;746;48.688;9.428;2023-06-14T00:50:57;8.00;;;5.93;;
1509;SDS011;746;48.688;9.428;2023-06-14T00:53:19;6.40;;;5.80;;
1509;SDS011;746;48.688;9.428;2023-06-14T00:55:43;6.13;;;5.63;;
1509;SDS011;746;48.688;9.428;2023-06-14T00:58:04;5.93;;;5.53;;
1509;SDS011;746;48.688;9.428;2023-06-14T01:00:25;6.43;;;5.93;;
1509;SDS011;746;48.688;9.428;2023-06-14T01:02:49;6.40;;;5.90;;
1509;SDS011;746;48.688;9.428;2023-06-14T01:05:11;6.00;;;5.60;;
1509;SDS011;746;48.688;9.428;2023-06-14T01:07:34;6.90;;;6.20;;
1509;SDS011;746;48.688;9.428;2023-06-14T01:10:02;6.33;;;5.50;;
1509;SDS011;746;48.688;9.428;2023-06-14T01:12:28;6.87;;;6.27;;
1509;SDS011;746;48.688;9.428;2023-06-14T01:14:52;6.80;;;6.20;;
1509;SDS011;746;48.688;9.428;2023-06-14T01:17:15;7.27;;;6.00;;
1509;SDS011;746;48.688;9.428;2023-06-14T01:19:38;7.60;;;6.20;;
1509;SDS011;746;48.688;9.428;2023-06-14T01:22:02;6.97;;;6.47;;
1509;SDS011;746;48.688;9.428;2023-06-14T01:24:25;6.77;;;6.17;;
1509;SDS011;746;48.688;9.428;2023-06-14T01:26:53;7.10;;;6.40;;
1509;SDS011;746;48.688;9.428;2023-06-14T01:29:15;7.30;;;6.60;;
1509;SDS011;746;48.688;9.428;2023-06-14T01:31:38;7.73;;;7.03;;
1509;SDS011;746;48.688;9.428;2023-06-14T01:34:01;7.40;;;6.80;;
1509;SDS011;746;48.688;9.428;2023-06-14T01:36:22;7.47;;;6.77;;
1509;SDS011;746;48.688;9.428;2023-06-14T01:38:46;7.37;;;6.50;;
1509;SDS011;746;48.688;9.428;2023-06-14T01:41:09;7.30;;;6.60;;
1509;SDS011;746;48.688;9.428;2023-06-14T01:43:30;7.30;;;6.60;;
1509;SDS011;746;48.688;9.428;2023-06-14T01:45:52;6.67;;;6.07;;
1509;SDS011;746;48.688;9.428;2023-06-14T01:48:14;6.97;;;6.37;;
1509;SDS011;746;48.688;9.428;2023-06-14T01:50:35;6.90;;;6.20;;
1509;SDS011;746;48.688;9.428;2023-06-14T01:52:57;7.33;;;6.53;;
1509;SDS011;746;48.688;9.428;2023-06-14T01:55:18;7.07;;;6.53;;
1509;SDS011;746;48.688;9.428;2023-06-14T01:57:42;6.80;;;6.27;;
1509;SDS011;746;48.688;9.428;2023-06-14T02:00:04;7.57;;;6.97;;
1509;SDS011;746;48.688;9.428;2023-06-14T02:02:31;7.33;;;6.63;;
1509;SDS011;746;48.688;9.428;2023-06-14T02:04:52;7.33;;;6.63;;
1509;SDS011;746;48.688;9.428;2023-06-14T02:07:17;7.00;;;6.50;;
1509;SDS011;746;48.688;9.428;2023-06-14T02:09:39;7.40;;;6.80;;
1509;SDS011;746;48.688;9.428;2023-06-14T02:12:00;7.27;;;6.70;;
1509;SDS011;746;48.688;9.428;2023-06-14T02:14:23;8.03;;;7.23;;
1509;SDS011;746;48.688;9.428;2023-06-14T02:16:44;7.80;;;7.03;;
1509;SDS011;746;48.688;9.428;2023-06-14T02:19:08;7.47;;;6.77;;
1509;SDS011;746;48.688;9.428;2023-06-14T02:21:30;8.37;;;7.57;;
1509;SDS011;746;48.688;9.428;2023-06-14T02:23:51;7.93;;;7.10;;
1509;SDS011;746;48.688;9.428;2023-06-14T02:26:13;8.70;;;7.40;;
1509;SDS011;746;48.688;9.428;2023-06-14T02:28:34;8.10;;;7.30;;
1509;SDS011;746;48.688;9.428;2023-06-14T02:30:58;8.50;;;7.70;;
1509;SDS011;746;48.688;9.428;2023-06-14T02:33:20;9.47;;;7.77;;
1509;SDS011;746;48.688;9.428;2023-06-14T02:35:41;8.60;;;7.80;;
1509;SDS011;746;48.688;9.428;2023-06-14T02:38:03;8.90;;;8.07;;
1509;SDS011;746;48.688;9.428;2023-06-14T02:40:24;8.00;;;7.17;;
1509;SDS011;746;48.688;9.428;2023-06-14T02:42:46;7.87;;;7.17;;
1509;SDS011;746;48.688;9.428;2023-06-14T02:45:07;7.77;;;7.07;;
1509;SDS011;746;48.688;9.428;2023-06-14T02:47:30;7.83;;;7.17;;
1509;SDS011;746;48.688;9.428;2023-06-14T02:49:52;8.53;;;7.53;;
1509;SDS011;746;48.688;9.428;2023-06-14T02:52:13;11.17;;;8.47;;
1509;SDS011;746;48.688;9.428;2023-06-14T02:54:34;10.03;;;8.40;;
1509;SDS011;746;48.688;9.428;2023-06-14T02:56:55;8.13;;;7.53;;
1509;SDS011;746;48.688;9.428;2023-06-14T02:59:17;11.87;;;7.37;;
1509;SDS011;746;48.688;9.428;2023-06-14T03:01:39;8.83;;;8.03;;
1509;SDS011;746;48.688;9.428;2023-06-14T03:04:02;8.47;;;7.70;;
1509;SDS011;746;48.688;9.428;2023-06-14T03:06:24;10.00;;;9.00;;
1509;SDS011;746;48.688;9.428;2023-06-14T03:08:45;9.83;;;8.67;;
1509;SDS011;746;48.688;9.428;2023-06-14T03:11:08;8.50;;;7.80;;
1509;SDS011;746;48.688;9.428;2023-06-14T03:13:30;9.23;;;8.33;;
1509;SDS011;746;48.688;9.428;2023-06-14T03:15:52;9.50;;;8.50;;
1509;SDS011;746;48.688;9.428;2023-06-14T03:18:13;9.47;;;8.40;;
1509;SDS011;746;48.688;9.428;2023-06-14T03:20:36;9.10;;;8.20;;
1509;SDS011;746;48.688;9.428;2023-06-14T03:22:57;10.17;;;8.27;;
1509;SDS011;746;48.688;9.428;2023-06-14T03:25:18;8.87;;;7.97;;
1509;SDS011;746;48.688;9.428;2023-06-14T03:27:41;8.33;;;7.63;;
1509;SDS011;746;48.688;9.428;2023-06-14T03:30:03;8.97;;;8.07;;
1509;SDS011;746;48.688;9.428;2023-06-14T03:32:25;8.70;;;7.90;;
1509;SDS011;746;48.688;9.428;2023-06-14T03:34:46;8.93;;;8.03;;
1509;SDS011;746;48.688;9.428;2023-06-14T03:37:08;9.37;;;8.47;;
1509;SDS011;746;48.688;9.428;2023-06-14T03:39:30;9.83;;;8.10;;
1509;SDS011;746;48.688;9.428;2023-06-14T03:41:51;10.93;;;7.90;;
1509;SDS011;746;48.688;9.428;2023-06-14T03:44:14;9.00;;;8.17;;
1509;SDS011;746;48.688;9.428;2023-06-14T03:46:35;8.63;;;7.83;;
1509;SDS011;746;48.688;9.428;2023-06-14T03:48:56;9.17;;;8.13;;
1509;SDS011;746;48.688;9.428;2023-06-14T03:51:18;9.03;;;8.00;;
1509;SDS011;746;48.688;9.428;2023-06-14T03:53:40;12.77;;;8.70;;
1509;SDS011;746;48.688;9.428;2023-06-14T03:56:22;8.83;;;7.93;;
1509;SDS011;746;48.688;9.428;2023-06-14T03:58:44;9.53;;;8.27;;
1509;SDS011;746;48.688;9.428;2023-06-14T04:01:09;8.63;;;7.90;;
1509;SDS011;746;48.688;9.428;2023-06-14T04:03:32;8.63;;;7.83;;
1509;SDS011;746;48.688;9.428;2023-06-14T04:05:54;9.83;;;8.60;;
1509;SDS011;746;48.688;9.428;2023-06-14T04:08:16;9.00;;;8.10;;
1509;SDS011;746;48.688;9.428;2023-06-14T04:10:41;8.47;;;7.73;;
1509;SDS011;746;48.688;9.428;2023-06-14T04:13:02;9.00;;;8.10;;
1509;SDS011;746;48.688;9.428;2023-06-14T04:15:24;8.27;;;7.53;;
1509;SDS011;746;48.688;9.428;2023-06-14T04:17:48;8.40;;;7.60;;
1509;SDS011;746;48.688;9.428;2023-06-14T04:20:10;8.87;;;7.53;;
1509;SDS011;746;48.688;9.428;2023-06-14T04:22:31;8.37;;;7.40;;
1509;SDS011;746;48.688;9.428;2023-06-14T04:24:53;8.50;;;7.60;;
1509;SDS011;746;48.688;9.428;2023-06-14T04:27:26;9.27;;;7.77;;
1509;SDS011;746;48.688;9.428;2023-06-14T04:29:48;8.63;;;7.73;;
1509;SDS011;746;48.688;9.428;2023-06-14T04:32:16;10.87;;;8.30;;
1509;SDS011;746;48.688;9.428;2023-06-14T04:34:39;10.07;;;8.53;;
1509;SDS011;746;48.688;9.428;2023-06-14T04:37:01;7.63;;;6.97;;
1509;SDS011;746;48.688;9.428;2023-06-14T04:39:22;9.30;;;8.33;;
1509;SDS011;746;48.688;9.428;2023-06-14T04:41:44;8.47;;;7.67;;
1509;SDS011;746;48.688;9.428;2023-06-14T04:44:08;9.20;;;8.20;;
1509;SDS011;746;48.688;9.428;2023-06-14T04:46:29;8.47;;;7.77;;
1509;SDS011;746;48.688;9.428;2023-06-14T04:48:52;9.77;;;8.73;;
1509;SDS011;746;48.688;9.428;2023-06-14T04:51:14;8.50;;;7.80;;
1509;SDS011;746;48.688;9.428;2023-06-14T04:53:35;8.70;;;7.90;;
1509;SDS011;746;48.688;9.428;2023-06-14T04:55:57;10.43;;;7.70;;
1509;SDS011;746;48.688;9.428;2023-06-14T04:58:18;9.00;;;8.20;;
1509;SDS011;746;48.688;9.428;2023-06-14T05:00:41;9.07;;;8.23;;
1509;SDS011;746;48.688;9.428;2023-06-14T05:03:03;8.90;;;8.10;;
1509;SDS011;746;48.688;9.428;2023-06-14T05:05:26;10.70;;;8.27;;
1509;SDS011;746;48.688;9.428;2023-06-14T05:07:48;8.93;;;8.20;;
1509;SDS011;746;48.688;9.428;2023-06-14T05:10:09;8.63;;;7.70;;
1509;SDS011;746;48.688;9.428;2023-06-14T05:12:30;8.90;;;8.10;;
1509;SDS011;746;48.688;9.428;2023-06-14T05:14:51;8.70;;;7.83;;
1509;SDS011;746;48.688;9.428;2023-06-14T05:17:14;8.80;;;8.00;;
1509;SDS011;746;48.688;9.428;2023-06-14T05:19:36;9.00;;;8.20;;
1509;SDS011;746;48.688;9.428;2023-06-14T05:21:57;8.83;;;8.07;;
1509;SDS011;746;48.688;9.428;2023-06-14T05:24:19;9.90;;;8.47;;
1509;SDS011;746;48.688;9.428;2023-06-14T05:26:41;10.20;;;9.10;;
1509;SDS011;746;48.688;9.428;2023-06-14T05:29:02;9.87;;;8.97;;
1509;SDS011;746;48.688;9.428;2023-06-14T05:31:24;9.13;;;8.43;;
1509;SDS011;746;48.688;9.428;2023-06-14T05:33:47;11.60;;;8.53;;
1509;SDS011;746;48.688;9.428;2023-06-14T05:36:09;12.60;;;8.57;;
1509;SDS011;746;48.688;9.428;2023-06-14T05:38:30;9.77;;;8.80;;
1509;SDS011;746;48.688;9.428;2023-06-14T05:40:52;9.30;;;8.50;;
1509;SDS011;746;48.688;9.428;2023-06-14T05:43:14;9.53;;;8.37;;
1509;SDS011;746;48.688;9.428;2023-06-14T05:45:35;9.77;;;7.90;;
1509;SDS011;746;48.688;9.428;2023-06-14T05:47:56;9.67;;;8.83;;
1509;SDS011;746;48.688;9.428;2023-06-14T05:50:19;9.07;;;8.00;;
1509;SDS011;746;48.688;9.428;2023-06-14T05:52:40;10.83;;;8.67;;
1509;SDS011;746;48.688;9.428;2023-06-14T05:55:01;9.20;;;8.30;;
1509;SDS011;746;48.688;9.428;2023-06-14T05:57:23;9.67;;;8.67;;
1509;SDS011;746;48.688;9.428;2023-06-14T05:59:44;10.90;;;8.63;;
1509;SDS011;746;48.688;9.428;2023-06-14T06:02:06;8.83;;;7.97;;
1509;SDS011;746;48.688;9.428;2023-06-14T06:04:27;8.90;;;8.10;;
1509;SDS011;746;48.688;9.428;2023-06-14T06:06:50;8.60;;;7.80;;
1509;SDS011;746;48.688;9.428;2023-06-14T06:09:11;8.27;;;7.57;;
1509;SDS011;746;48.688;9.428;2023-06-14T06:11:34;8.70;;;7.20;;
1509;SDS011;746;48.688;9.428;2023-06-14T06:14:11;7.80;;;7.10;;
1509;SDS011;746;48.688;9.428;2023-06-14T06:16:32;8.40;;;7.70;;
1509;SDS011;746;48.688;9.428;2023-06-14T06:18:54;7.97;;;7.17;;
1509;SDS011;746;48.688;9.428;2023-06-14T06:21:15;8.20;;;7.27;;
1509;SDS011;746;48.688;9.428;2023-06-14T06:23:37;8.77;;;7.60;;
1509;SDS011;746;48.688;9.428;2023-06-14T06:25:59;8.50;;;7.80;;
1509;SDS011;746;48.688;9.428;2023-06-14T06:28:20;7.97;;;7.17;;
1509;SDS011;746;48.688;9.428;2023-06-14T06:30:42;9.60;;;7.20;;
1509;SDS011;746;48.688;9.428;2023-06-14T06:33:03;8.43;;;7.70;;
1509;SDS011;746;48.688;9.428;2023-06-14T06:35:24;8.37;;;7.57;;
1509;SDS011;746;48.688;9.428;2023-06-14T06:37:46;9.80;;;7.57;;
1509;SDS011;746;48.688;9.428;2023-06-14T06:40:09;8.23;;;7.23;;
1509;SDS011;746;48.688;9.428;2023-06-14T06:42:30;7.77;;;7.07;;
1509;SDS011;746;48.688;9.428;2023-06-14T06:44:51;8.10;;;6.70;;
1509;SDS011;746;48.688;9.428;2023-06-14T06:47:13;7.30;;;6.40;;
1509;SDS011;746;48.688;9.428;2023-06-14T06:49:34;9.17;;;7.20;;
1509;SDS011;746;48.688;9.428;2023-06-14T06:51:59;9.87;;;6.83;;
1509;SDS011;746;48.688;9.428;2023-06-14T06:54:20;8.47;;;6.57;;
1509;SDS011;746;48.688;9.428;2023-06-14T06:56:43;8.00;;;6.57;;
1509;SDS011;746;48.688;9.428;2023-06-14T06:59:04;6.33;;;5.73;;
1509;SDS011;746;48.688;9.428;2023-06-14T07:01:26;7.00;;;6.30;;
1509;SDS011;746;48.688;9.428;2023-06-14T07:03:49;6.87;;;6.23;;
1509;SDS011;746;48.688;9.428;2023-06-14T07:06:10;6.80;;;6.27;;
1509;SDS011;746;48.688;9.428;2023-06-14T07:08:32;7.03;;;5.97;;
1509;SDS011;746;48.688;9.428;2023-06-14T07:10:53;5.87;;;5.30;;
1509;SDS011;746;48.688;9.428;2023-06-14T07:13:16;11.13;;;6.37;;
1509;SDS011;746;48.688;9.428;2023-06-14T07:15:37;8.30;;;6.20;;
1509;SDS011;746;48.688;9.428;2023-06-14T07:17:59;10.53;;;5.77;;
1509;SDS011;746;48.688;9.428;2023-06-14T07:20:20;5.97;;;5.47;;
1509;SDS011;746;48.688;9.428;2023-06-14T07:22:43;7.47;;;5.50;;
1509;SDS011;746;48.688;9.428;2023-06-14T07:25:04;6.53;;;5.57;;
1509;SDS011;746;48.688;9.428;2023-06-14T07:27:26;5.83;;;5.33;;
1509;SDS011;746;48.688;9.428;2023-06-14T07:29:49;5.97;;;5.40;;
1509;SDS011;746;48.688;9.428;2023-06-14T07:32:10;5.77;;;5.27;;
1509;SDS011;746;48.688;9.428;2023-06-14T07:34:31;6.70;;;5.47;;
1509;SDS011;746;48.688;9.428;2023-06-14T07:36:52;5.63;;;5.13;;
1509;SDS011;746;48.688;9.428;2023-06-14T07:39:14;9.87;;;6.00;;
1509;SDS011;746;48.688;9.428;2023-06-14T07:41:35;7.90;;;4.93;;
1509;SDS011;746;48.688;9.428;2023-06-14T07:43:56;5.87;;;5.20;;
1509;SDS011;746;48.688;9.428;2023-06-14T07:46:19;7.03;;;5.17;;
1509;SDS011;746;48.688;9.428;2023-06-14T07:48:40;7.20;;;5.07;;
1509;SDS011;746;48.688;9.428;2023-06-14T07:51:02;5.73;;;5.30;;
1509;SDS011;746;48.688;9.428;2023-06-14T07:53:24;5.50;;;5.00;;
1509;SDS011;746;48.688;9.428;2023-06-14T07:55:45;5.50;;;5.07;;
1509;SDS011;746;48.688;9.428;2023-06-14T07:58:13;5.50;;;5.00;;
1509;SDS011;746;48.688;9.428;2023-06-14T08:00:34;6.30;;;5.70;;
1509;SDS011;746;48.688;9.428;2023-06-14T08:02:57;10.27;;;5.57;;
1509;SDS011;746;48.688;9.428;2023-06-14T08:05:21;8.30;;;5.63;;
1509;SDS011;746;48.688;9.428;2023-06-14T08:07:42;7.63;;;5.43;;
1509;SDS011;746;48.688;9.428;2023-06-14T08:10:04;6.07;;;4.97;;
1509;SDS011;746;48.688;9.428;2023-06-14T08:12:26;8.83;;;5.10;;
1509;SDS011;746;48.688;9.428;2023-06-14T08:14:47;5.17;;;4.77;;
1509;SDS011;746;48.688;9.428;2023-06-14T08:17:20;4.93;;;4.60;;
1509;SDS011;746;48.688;9.428;2023-06-14T08:19:43;5.17;;;4.73;;
1509;SDS011;746;48.688;9.428;2023-06-14T08:22:04;5.80;;;5.30;;
1509;SDS011;746;48.688;9.428;2023-06-14T08:24:25;5.53;;;5.00;;
1509;SDS011;746;48.688;9.428;2023-06-14T08:26:48;5.57;;;5.17;;
1509;SDS011;746;48.688;9.428;2023-06-14T08:29:09;5.53;;;5.07;;
1509;SDS011;746;48.688;9.428;2023-06-14T08:31:31;6.47;;;5.03;;
1509;SDS011;746;48.688;9.428;2023-06-14T08:33:53;5.63;;;5.13;;
1509;SDS011;746;48.688;9.428;2023-06-14T08:36:16;5.30;;;4.90;;
1509;SDS011;746;48.688;9.428;2023-06-14T08:38:37;6.60;;;4.87;;
1509;SDS011;746;48.688;9.428;2023-06-14T08:40:58;5.70;;;5.23;;
1509;SDS011;746;48.688;9.428;2023-06-14T08:43:21;5.57;;;5.17;;
1509;SDS011;746;48.688;9.428;2023-06-14T08:45:43;5.53;;;5.07;;
1509;SDS011;746;48.688;9.428;2023-06-14T08:48:07;7.73;;;5.17;;
1509;SDS011;746;48.688;9.428;2023-06-14T08:50:29;5.63;;;5.13;;
1509;SDS011;746;48.688;9.428;2023-06-14T08:52:55;5.37;;;4.87;;
1509;SDS011;746;48.688;9.428;2023-06-14T08:55:17;5.13;;;4.63;;
1509;SDS011;746;48.688;9.428;2023-06-14T08:57:39;6.00;;;5.60;;
1509;SDS011;746;48.688;9.428;2023-06-14T09:00:01;5.73;;;4.80;;
1509;SDS011;746;48.688;9.428;2023-06-14T09:02:29;5.60;;;5.10;;
1509;SDS011;746;48.688;9.428;2023-06-14T09:04:55;5.40;;;5.00;;
1509;SDS011;746;48.688;9.428;2023-06-14T09:07:19;6.30;;;4.80;;
1509;SDS011;746;48.688;9.428;2023-06-14T09:09:42;5.67;;;5.17;;
1509;SDS011;746;48.688;9.428;2023-06-14T09:12:23;5.77;;;5.10;;
1509;SDS011;746;48.688;9.428;2023-06-14T09:14:44;6.27;;;5.63;;
1509;SDS011;746;48.688;9.428;2023-06-14T09:17:06;9.60;;;5.20;;
1509;SDS011;746;48.688;9.428;2023-06-14T09:19:27;5.63;;;5.23;;
1509;SDS011;746;48.688;9.428;2023-06-14T09:21:49;5.83;;;5.43;;
1509;SDS011;746;48.688;9.428;2023-06-14T09:24:13;5.33;;;4.93;;
1509;SDS011;746;48.688;9.428;2023-06-14T09:26:36;6.00;;;5.50;;
1509;SDS011;746;48.688;9.428;2023-06-14T09:28:59;5.83;;;5.27;;
1509;SDS011;746;48.688;9.428;2023-06-14T09:31:20;6.07;;;5.50;;
1509;SDS011;746;48.688;9.428;2023-06-14T09:33:42;6.17;;;5.53;;
1509;SDS011;746;48.688;9.428;2023-06-14T09:36:09;6.57;;;5.00;;
1509;SDS011;746;48.688;9.428;2023-06-14T09:38:30;5.80;;;4.97;;
1509;SDS011;746;48.688;9.428;2023-06-14T09:40:52;5.23;;;4.83;;
1509;SDS011;746;48.688;9.428;2023-06-14T09:43:15;5.53;;;5.20;;
1509;SDS011;746;48.688;9.428;2023-06-14T09:45:36;5.60;;;4.93;;
1509;SDS011;746;48.688;9.428;2023-06-14T09:47:59;5.73;;;5.30;;
1509;SDS011;746;48.688;9.428;2023-06-14T09:50:27;7.00;;;5.80;;
1509;SDS011;746;48.688;9.428;2023-06-14T09:52:48;6.37;;;5.30;;
1509;SDS011;746;48.688;9.428;2023-06-14T09:55:13;5.90;;;5.20;;
1509;SDS011;746;48.688;9.428;2023-06-14T09:57:35;5.83;;;5.07;;
1509;SDS011;746;48.688;9.428;2023-06-14T09:59:57;6.73;;;5.27;;
1509;SDS011;746;48.688;9.428;2023-06-14T10:02:22;8.23;;;5.43;;
1509;SDS011;746;48.688;9.428;2023-06-14T10:04:45;6.20;;;4.87;;
1509;SDS011;746;48.688;9.428;2023-06-14T10:07:07;5.10;;;4.70;;
1509;SDS011;746;48.688;9.428;2023-06-14T10:09:29;5.50;;;5.00;;
1509;SDS011;746;48.688;9.428;2023-06-14T10:11:52;5.23;;;4.73;;
1509;SDS011;746;48.688;9.428;2023-06-14T10:14:14;5.53;;;5.13;;
1509;SDS011;746;48.688;9.428;2023-06-14T10:16:37;5.27;;;4.87;;
1509;SDS011;746;48.688;9.428;2023-06-14T10:19:03;5.47;;;5.07;;
1509;SDS011;746;48.688;9.428;2023-06-14T10:21:28;6.37;;;5.13;;
1509;SDS011;746;48.688;9.428;2023-06-14T10:23:51;8.70;;;4.97;;
1509;SDS011;746;48.688;9.428;2023-06-14T10:26:19;5.23;;;4.80;;
1509;SDS011;746;48.688;9.428;2023-06-14T10:28:42;5.73;;;5.20;;
1509;SDS011;746;48.688;9.428;2023-06-14T10:31:15;5.57;;;5.13;;
1509;SDS011;746;48.688;9.428;2023-06-14T10:33:48;7.53;;;5.30;;
1509;SDS011;746;48.688;9.428;2023-06-14T10:36:10;6.20;;;5.60;;
1509;SDS011;746;48.688;9.428;2023-06-14T10:38:31;5.50;;;5.03;;
1509;SDS011;746;48.688;9.428;2023-06-14T10:40:53;5.37;;;5.00;;
1509;SDS011;746;48.688;9.428;2023-06-14T10:43:22;5.97;;;5.03;;
1509;SDS011;746;48.688;9.428;2023-06-14T10:48:29;5.70;;;5.20;;
1509;SDS011;746;48.688;9.428;2023-06-14T10:50:53;4.83;;;4.53;;
1509;SDS011;746;48.688;9.428;2023-06-14T10:53:24;8.97;;;5.13;;
1509;SDS011;746;48.688;9.428;2023-06-14T10:55:45;5.27;;;4.80;;
1509;SDS011;746;48.688;9.428;2023-06-14T10:58:06;5.90;;;4.80;;
1509;SDS011;746;48.688;9.428;2023-06-14T11:00:28;7.57;;;5.23;;
1509;SDS011;746;48.688;9.428;2023-06-14T11:05:30;6.10;;;4.80;;
1509;SDS011;746;48.688;9.428;2023-06-14T11:08:10;6.23;;;4.83;;
1509;SDS011;746;48.688;9.428;2023-06-14T11:10:36;6.40;;;4.97;;
1509;SDS011;746;48.688;9.428;2023-06-14T11:12:58;4.73;;;4.43;;
1509;SDS011;746;48.688;9.428;2023-06-14T11:15:20;5.77;;;4.73;;
1509;SDS011;746;48.688;9.428;2023-06-14T11:17:49;5.20;;;4.80;;
1509;SDS011;746;48.688;9.428;2023-06-14T11:20:11;13.53;;;5.27;;
1509;SDS011;746;48.688;9.428;2023-06-14T11:22:41;5.60;;;5.00;;
1509;SDS011;746;48.688;9.428;2023-06-14T11:25:04;5.50;;;4.90;;
1509;SDS011;746;48.688;9.428;2023-06-14T11:27:27;6.53;;;5.60;;
1509;SDS011;746;48.688;9.428;2023-06-14T11:29:48;5.80;;;5.40;;
1509;SDS011;746;48.688;9.428;2023-06-14T11:32:10;6.87;;;5.10;;
1509;SDS011;746;48.688;9.428;2023-06-14T11:34:33;5.70;;;5.00;;
1509;SDS011;746;48.688;9.428;2023-06-14T11:36:54;6.33;;;5.30;;
1509;SDS011;746;48.688;9.428;2023-06-14T11:39:15;7.50;;;5.57;;
1509;SDS011;746;48.688;9.428;2023-06-14T11:41:38;5.70;;;5.20;;
1509;SDS011;746;48.688;9.428;2023-06-14T11:44:00;6.50;;;5.60;;
1509;SDS011;746;48.688;9.428;2023-06-14T11:46:21;5.40;;;4.90;;
1509;SDS011;746;48.688;9.428;2023-06-14T11:48:44;5.40;;;5.10;;
1509;SDS011;746;48.688;9.428;2023-06-14T11:51:06;5.53;;;5.03;;
1509;SDS011;746;48.688;9.428;2023-06-14T11:53:27;5.90;;;5.33;;
1509;SDS011;746;48.688;9.428;2023-06-14T11:55:49;5.70;;;5.17;;
1509;SDS011;746;48.688;9.428;2023-06-14T11:58:11;5.30;;;4.90;;
1509;SDS011;746;48.688;9.428;2023-06-14T12:00:35;5.43;;;4.93;;
1509;SDS011;746;48.688;9.428;2023-06-14T12:02:56;5.53;;;4.80;;
1509;SDS011;746;48.688;9.428;2023-06-14T12:05:20;7.73;;;4.70;;
1509;SDS011;746;48.688;9.428;2023-06-14T12:07:41;7.20;;;4.90;;
1509;SDS011;746;48.688;9.428;2023-06-14T12:10:06;5.77;;;5.23;;
1509;SDS011;746;48.688;9.428;2023-06-14T12:12:28;7.30;;;4.90;;
1509;SDS011;746;48.688;9.428;2023-06-14T12:14:51;6.87;;;4.70;;
1509;SDS011;746;48.688;9.428;2023-06-14T12:17:13;7.13;;;4.87;;
1509;SDS011;746;48.688;9.428;2023-06-14T12:19:40;5.63;;;4.97;;
1509;SDS011;746;48.688;9.428;2023-06-14T12:22:03;5.57;;;5.17;;
1509;SDS011;746;48.688;9.428;2023-06-14T12:24:27;8.10;;;5.47;;
1509;SDS011;746;48.688;9.428;2023-06-14T12:26:51;6.27;;;5.20;;
1509;SDS011;746;48.688;9.428;2023-06-14T12:29:12;5.37;;;4.87;;
1509;SDS011;746;48.688;9.428;2023-06-14T12:31:35;6.13;;;4.80;;
1509;SDS011;746;48.688;9.428;2023-06-14T12:33:56;5.10;;;4.80;;
1509;SDS011;746;48.688;9.428;2023-06-14T12:36:17;5.57;;;5.00;;
1509;SDS011;746;48.688;9.428;2023-06-14T12:38:38;9.87;;;5.17;;
1509;SDS011;746;48.688;9.428;2023-06-14T12:40:59;6.07;;;4.90;;
1509;SDS011;746;48.688;9.428;2023-06-14T12:43:21;6.50;;;4.83;;
1509;SDS011;746;48.688;9.428;2023-06-14T12:45:42;5.30;;;4.70;;
1509;SDS011;746;48.688;9.428;2023-06-14T12:48:05;5.00;;;4.57;;
1509;SDS011;746;48.688;9.428;2023-06-14T12:50:29;4.87;;;4.47;;
1509;SDS011;746;48.688;9.428;2023-06-14T12:52:50;5.17;;;4.70;;
1509;SDS011;746;48.688;9.428;2023-06-14T12:55:11;5.07;;;4.70;;
1509;SDS011;746;48.688;9.428;2023-06-14T12:57:34;4.57;;;4.17;;
1509;SDS011;746;48.688;9.428;2023-06-14T12:59:57;5.93;;;4.50;;
1509;SDS011;746;48.688;9.428;2023-06-14T13:02:19;4.70;;;4.40;;
1509;SDS011;746;48.688;9.428;2023-06-14T13:04:46;5.00;;;4.70;;
1509;SDS011;746;48.688;9.428;2023-06-14T13:07:07;6.47;;;4.50;;
1509;SDS011;746;48.688;9.428;2023-06-14T13:09:30;6.77;;;4.60;;
1509;SDS011;746;48.688;9.428;2023-06-14T13:11:51;4.93;;;4.47;;
1509;SDS011;746;48.688;9.428;2023-06-14T13:14:13;6.90;;;4.70;;
1509;SDS011;746;48.688;9.428;2023-06-14T13:16:45;7.40;;;5.43;;
1509;SDS011;746;48.688;9.428;2023-06-14T13:19:07;5.50;;;5.00;;
1509;SDS011;746;48.688;9.428;2023-06-14T13:21:30;6.87;;;5.47;;
1509;SDS011;746;48.688;9.428;2023-06-14T13:23:51;5.67;;;5.17;;
1509;SDS011;746;48.688;9.428;2023-06-14T13:26:13;6.90;;;5.53;;
1509;SDS011;746;48.688;9.428;2023-06-14T13:28:35;6.33;;;5.03;;
1509;SDS011;746;48.688;9.428;2023-06-14T13:30:56;5.20;;;4.80;;
1509;SDS011;746;48.688;9.428;2023-06-14T13:33:17;5.40;;;5.00;;
1509;SDS011;746;48.688;9.428;2023-06-14T13:35:39;6.37;;;4.77;;
1509;SDS011;746;48.688;9.428;2023-06-14T13:38:01;4.97;;;4.53;;
1509;SDS011;746;48.688;9.428;2023-06-14T13:40:23;7.33;;;4.20;;
1509;SDS011;746;48.688;9.428;2023-06-14T13:42:45;7.73;;;4.50;;
1509;SDS011;746;48.688;9.428;2023-06-14T13:45:07;5.80;;;4.53;;
1509;SDS011;746;48.688;9.428;2023-06-14T13:47:29;4.77;;;4.40;;
1509;SDS011;746;48.688;9.428;2023-06-14T13:50:09;4.67;;;4.40;;
1509;SDS011;746;48.688;9.428;2023-06-14T13:52:30;5.30;;;4.80;;
1509;SDS011;746;48.688;9.428;2023-06-14T13:55:10;6.87;;;5.00;;
1509;SDS011;746;48.688;9.428;2023-06-14T13:57:49;7.07;;;4.53;;
1509;SDS011;746;48.688;9.428;2023-06-14T14:00:29;6.73;;;4.73;;
1509;SDS011;746;48.688;9.428;2023-06-14T14:02:50;5.30;;;4.80;;
1509;SDS011;746;48.688;9.428;2023-06-14T14:05:12;4.97;;;4.57;;
1509;SDS011;746;48.688;9.428;2023-06-14T14:07:51;4.43;;;4.03;;
1509;SDS011;746;48.688;9.428;2023-06-14T14:10:31;4.37;;;4.17;;
1509;SDS011;746;48.688;9.428;2023-06-14T14:12:53;5.47;;;4.37;;
1509;SDS011;746;48.688;9.428;2023-06-14T14:15:32;7.93;;;4.40;;
1509;SDS011;746;48.688;9.428;2023-06-14T14:17:55;5.57;;;4.73;;
1509;SDS011;746;48.688;9.428;2023-06-14T14:20:17;6.20;;;4.70;;
1509;SDS011;746;48.688;9.428;2023-06-14T14:22:39;6.13;;;4.70;;
1509;SDS011;746;48.688;9.428;2023-06-14T14:25:18;4.77;;;4.43;;
1509;SDS011;746;48.688;9.428;2023-06-14T14:31:22;5.80;;;5.20;;
1509;SDS011;746;48.688;9.428;2023-06-14T14:33:43;5.77;;;4.57;;
1509;SDS011;746;48.688;9.428;2023-06-14T14:36:05;4.93;;;4.53;;
1509;SDS011;746;48.688;9.428;2023-06-14T14:38:27;7.37;;;4.63;;
1509;SDS011;746;48.688;9.428;2023-06-14T14:40:48;5.17;;;4.80;;
1509;SDS011;746;48.688;9.428;2023-06-14T14:43:10;4.80;;;4.40;;
1509;SDS011;746;48.688;9.428;2023-06-14T14:45:31;4.83;;;4.30;;
1509;SDS011;746;48.688;9.428;2023-06-14T14:47:54;4.50;;;4.10;;
1509;SDS011;746;48.688;9.428;2023-06-14T14:50:16;7.50;;;4.90;;
1509;SDS011;746;48.688;9.428;2023-06-14T14:52:37;12.50;;;5.07;;
1509;SDS011;746;48.688;9.428;2023-06-14T14:54:59;5.13;;;4.50;;
1509;SDS011;746;48.688;9.428;2023-06-14T14:57:21;6.40;;;4.70;;
1509;SDS011;746;48.688;9.428;2023-06-14T14:59:42;5.10;;;4.40;;
1509;SDS011;746;48.688;9.428;2023-06-14T15:02:04;6.90;;;4.60;;
1509;SDS011;746;48.688;9.428;2023-06-14T15:04:26;9.57;;;4.60;;
1509;SDS011;746;48.688;9.428;2023-06-14T15:06:48;5.00;;;4.60;;
1509;SDS011;746;48.688;9.428;2023-06-14T15:09:09;5.90;;;4.33;;
1509;SDS011;746;48.688;9.428;2023-06-14T15:11:30;4.67;;;4.27;;